sensor_id;sensor_type;location;lat;lon;timestamp;P1;durP1;ratioP1;P2;durP2;ratioP2
14768;SDS011;7476;49.404;11.152;2023-04-05T00:01:57;3.97;;;3.57;;
14768;SDS011;7476;49.404;11.152;2023-04-05T00:04:24;4.23;;;3.47;;
14768;SDS011;7476;49.404;11.152;2023-04-05T00:06:52;6.13;;;3.20;;
14768;SDS011;7476;49.404;11.152;2023-04-05T00:09:19;5.57;;;3.70;;
14768;SDS011;7476;49.404;11.152;2023-04-05T00:11:46;4.87;;;3.50;;
14768;SDS011;7476;49.404;11.152;2023-04-05T00:14:13;4.37;;;3.03;;
14768;SDS011;7476;49.404;11.152;2023-04-05T00:16:41;4.33;;;3.73;;
14768;SDS011;7476;49.404;11.152;2023-04-05T00:19:08;5.50;;;3.40;;
14768;SDS011;7476;49.404;11.152;2023-04-05T00:21:36;4.93;;;3.17;;
14768;SDS011;7476;49.404;11.152;2023-04-05T00:24:03;4.80;;;3.03;;
14768;SDS011;7476;49.404;11.152;2023-04-05T00:26:31;7.63;;;3.90;;
14768;SDS011;7476;49.404;11.152;2023-04-05T00:28:58;5.13;;;3.07;;
14768;SDS011;7476;49.404;11.152;2023-04-05T00:31:25;4.77;;;3.03;;
14768;SDS011;7476;49.404;11.152;2023-04-05T00:33:52;4.57;;;3.07;;
14768;SDS011;7476;49.404;11.152;2023-04-05T00:36:19;4.70;;;3.00;;
14768;SDS011;7476;49.404;11.152;2023-04-05T00:38:46;3.03;;;2.83;;
14768;SDS011;7476;49.404;11.152;2023-04-05T00:41:13;4.27;;;3.10;;
14768;SDS011;7476;49.404;11.152;2023-04-05T00:43:40;4.47;;;3.20;;
14768;SDS011;7476;49.404;11.152;2023-04-05T00:46:07;4.00;;;3.37;;
14768;SDS011;7476;49.404;11.152;2023-04-05T00:48:34;4.23;;;3.13;;
14768;SDS011;7476;49.404;11.152;2023-04-05T00:51:02;3.17;;;2.50;;
14768;SDS011;7476;49.404;11.152;2023-04-05T00:53:33;3.30;;;3.00;;
14768;SDS011;7476;49.404;11.152;2023-04-05T00:56:00;4.23;;;2.97;;
14768;SDS011;7476;49.404;11.152;2023-04-05T00:58:27;3.60;;;3.10;;
14768;SDS011;7476;49.404;11.152;2023-04-05T01:00:57;3.27;;;2.93;;
14768;SDS011;7476;49.404;11.152;2023-04-05T01:03:29;4.30;;;3.00;;
14768;SDS011;7476;49.404;11.152;2023-04-05T01:06:03;4.50;;;2.90;;
14768;SDS011;7476;49.404;11.152;2023-04-05T01:08:39;3.90;;;2.70;;
14768;SDS011;7476;49.404;11.152;2023-04-05T01:11:14;4.30;;;3.13;;
14768;SDS011;7476;49.404;11.152;2023-04-05T01:13:43;3.83;;;3.17;;
14768;SDS011;7476;49.404;11.152;2023-04-05T01:16:11;5.43;;;3.43;;
14768;SDS011;7476;49.404;11.152;2023-04-05T01:18:37;3.50;;;3.20;;
14768;SDS011;7476;49.404;11.152;2023-04-05T01:21:18;3.33;;;3.03;;
14768;SDS011;7476;49.404;11.152;2023-04-05T01:23:59;4.17;;;3.00;;
14768;SDS011;7476;49.404;11.152;2023-04-05T01:26:45;3.17;;;2.87;;
14768;SDS011;7476;49.404;11.152;2023-04-05T01:35:12;3.73;;;2.70;;
14768;SDS011;7476;49.404;11.152;2023-04-05T01:37:47;5.43;;;3.03;;
14768;SDS011;7476;49.404;11.152;2023-04-05T01:40:15;5.07;;;3.13;;
14768;SDS011;7476;49.404;11.152;2023-04-05T01:42:43;3.70;;;2.70;;
14768;SDS011;7476;49.404;11.152;2023-04-05T01:45:12;3.87;;;2.83;;
14768;SDS011;7476;49.404;11.152;2023-04-05T01:47:39;3.63;;;2.97;;
14768;SDS011;7476;49.404;11.152;2023-04-05T01:50:06;5.87;;;2.80;;
14768;SDS011;7476;49.404;11.152;2023-04-05T01:52:34;3.57;;;3.07;;
14768;SDS011;7476;49.404;11.152;2023-04-05T01:55:01;3.07;;;2.70;;
14768;SDS011;7476;49.404;11.152;2023-04-05T01:57:28;4.90;;;3.20;;
14768;SDS011;7476;49.404;11.152;2023-04-05T01:59:54;3.20;;;2.90;;
14768;SDS011;7476;49.404;11.152;2023-04-05T02:02:22;3.87;;;3.13;;
14768;SDS011;7476;49.404;11.152;2023-04-05T02:04:49;3.60;;;3.30;;
14768;SDS011;7476;49.404;11.152;2023-04-05T02:07:16;3.20;;;2.70;;
14768;SDS011;7476;49.404;11.152;2023-04-05T02:09:43;4.33;;;2.90;;
14768;SDS011;7476;49.404;11.152;2023-04-05T02:12:09;3.27;;;2.97;;
14768;SDS011;7476;49.404;11.152;2023-04-05T02:14:36;4.50;;;3.00;;
14768;SDS011;7476;49.404;11.152;2023-04-05T02:17:03;3.30;;;3.00;;
14768;SDS011;7476;49.404;11.152;2023-04-05T02:19:31;4.57;;;3.03;;
14768;SDS011;7476;49.404;11.152;2023-04-05T02:22:05;4.37;;;3.20;;
14768;SDS011;7476;49.404;11.152;2023-04-05T02:24:32;3.93;;;3.10;;
14768;SDS011;7476;49.404;11.152;2023-04-05T02:26:59;4.77;;;2.93;;
14768;SDS011;7476;49.404;11.152;2023-04-05T02:29:25;4.27;;;3.47;;
14768;SDS011;7476;49.404;11.152;2023-04-05T02:31:52;4.33;;;3.27;;
14768;SDS011;7476;49.404;11.152;2023-04-05T02:34:19;4.37;;;3.27;;
14768;SDS011;7476;49.404;11.152;2023-04-05T02:36:49;3.20;;;2.90;;
14768;SDS011;7476;49.404;11.152;2023-04-05T02:39:16;7.17;;;3.20;;
14768;SDS011;7476;49.404;11.152;2023-04-05T02:41:43;3.07;;;2.73;;
14768;SDS011;7476;49.404;11.152;2023-04-05T02:44:10;4.07;;;2.87;;
14768;SDS011;7476;49.404;11.152;2023-04-05T02:46:37;5.57;;;3.30;;
14768;SDS011;7476;49.404;11.152;2023-04-05T02:49:04;4.43;;;2.73;;
14768;SDS011;7476;49.404;11.152;2023-04-05T02:51:31;3.27;;;2.97;;
14768;SDS011;7476;49.404;11.152;2023-04-05T02:54:00;3.20;;;2.90;;
14768;SDS011;7476;49.404;11.152;2023-04-05T02:56:27;3.50;;;2.97;;
14768;SDS011;7476;49.404;11.152;2023-04-05T02:58:54;4.63;;;3.10;;
14768;SDS011;7476;49.404;11.152;2023-04-05T03:01:21;4.47;;;3.03;;
14768;SDS011;7476;49.404;11.152;2023-04-05T03:03:47;4.70;;;3.60;;
14768;SDS011;7476;49.404;11.152;2023-04-05T03:06:14;4.63;;;3.30;;
14768;SDS011;7476;49.404;11.152;2023-04-05T03:08:41;3.43;;;2.90;;
14768;SDS011;7476;49.404;11.152;2023-04-05T03:11:11;3.73;;;3.13;;
14768;SDS011;7476;49.404;11.152;2023-04-05T03:13:38;4.20;;;3.23;;
14768;SDS011;7476;49.404;11.152;2023-04-05T03:16:05;6.70;;;3.20;;
14768;SDS011;7476;49.404;11.152;2023-04-05T03:18:32;5.17;;;3.23;;
14768;SDS011;7476;49.404;11.152;2023-04-05T03:20:59;3.67;;;3.00;;
14768;SDS011;7476;49.404;11.152;2023-04-05T03:23:28;5.37;;;3.10;;
14768;SDS011;7476;49.404;11.152;2023-04-05T03:25:57;4.47;;;3.57;;
14768;SDS011;7476;49.404;11.152;2023-04-05T03:28:26;4.63;;;3.20;;
14768;SDS011;7476;49.404;11.152;2023-04-05T03:30:53;4.93;;;3.00;;
14768;SDS011;7476;49.404;11.152;2023-04-05T03:33:19;4.67;;;3.13;;
14768;SDS011;7476;49.404;11.152;2023-04-05T03:35:46;3.83;;;2.97;;
14768;SDS011;7476;49.404;11.152;2023-04-05T03:38:13;5.73;;;3.17;;
14768;SDS011;7476;49.404;11.152;2023-04-05T03:40:41;5.03;;;3.10;;
14768;SDS011;7476;49.404;11.152;2023-04-05T03:43:08;5.83;;;3.43;;
14768;SDS011;7476;49.404;11.152;2023-04-05T03:45:36;3.43;;;3.00;;
14768;SDS011;7476;49.404;11.152;2023-04-05T03:48:03;4.47;;;2.90;;
14768;SDS011;7476;49.404;11.152;2023-04-05T03:50:30;4.13;;;3.30;;
14768;SDS011;7476;49.404;11.152;2023-04-05T03:52:57;4.00;;;3.33;;
14768;SDS011;7476;49.404;11.152;2023-04-05T03:55:24;5.30;;;3.40;;
14768;SDS011;7476;49.404;11.152;2023-04-05T03:57:51;4.93;;;3.47;;
14768;SDS011;7476;49.404;11.152;2023-04-05T04:00:17;5.13;;;3.40;;
14768;SDS011;7476;49.404;11.152;2023-04-05T04:02:46;4.70;;;3.20;;
14768;SDS011;7476;49.404;11.152;2023-04-05T04:05:14;3.83;;;3.20;;
14768;SDS011;7476;49.404;11.152;2023-04-05T04:07:42;3.97;;;3.50;;
14768;SDS011;7476;49.404;11.152;2023-04-05T04:10:10;6.73;;;3.47;;
14768;SDS011;7476;49.404;11.152;2023-04-05T04:12:38;4.27;;;3.10;;
14768;SDS011;7476;49.404;11.152;2023-04-05T04:15:05;4.97;;;3.33;;
14768;SDS011;7476;49.404;11.152;2023-04-05T04:17:33;3.77;;;3.20;;
14768;SDS011;7476;49.404;11.152;2023-04-05T04:20:03;5.27;;;3.30;;
14768;SDS011;7476;49.404;11.152;2023-04-05T04:22:35;3.83;;;3.43;;
14768;SDS011;7476;49.404;11.152;2023-04-05T04:25:05;4.10;;;3.27;;
14768;SDS011;7476;49.404;11.152;2023-04-05T04:27:34;4.63;;;3.50;;
14768;SDS011;7476;49.404;11.152;2023-04-05T04:30:03;3.40;;;3.00;;
14768;SDS011;7476;49.404;11.152;2023-04-05T04:32:32;5.63;;;3.60;;
14768;SDS011;7476;49.404;11.152;2023-04-05T04:35:18;4.53;;;3.67;;
14768;SDS011;7476;49.404;11.152;2023-04-05T04:37:49;4.03;;;3.30;;
14768;SDS011;7476;49.404;11.152;2023-04-05T04:40:18;4.07;;;3.60;;
14768;SDS011;7476;49.404;11.152;2023-04-05T04:42:46;5.20;;;3.33;;
14768;SDS011;7476;49.404;11.152;2023-04-05T04:45:15;4.17;;;3.57;;
14768;SDS011;7476;49.404;11.152;2023-04-05T04:47:42;3.97;;;3.27;;
14768;SDS011;7476;49.404;11.152;2023-04-05T04:50:11;4.73;;;3.70;;
14768;SDS011;7476;49.404;11.152;2023-04-05T04:52:39;5.33;;;3.53;;
14768;SDS011;7476;49.404;11.152;2023-04-05T04:55:06;4.77;;;3.50;;
14768;SDS011;7476;49.404;11.152;2023-04-05T04:57:33;5.77;;;3.37;;
14768;SDS011;7476;49.404;11.152;2023-04-05T05:00:00;4.47;;;3.50;;
14768;SDS011;7476;49.404;11.152;2023-04-05T05:02:31;4.70;;;3.80;;
14768;SDS011;7476;49.404;11.152;2023-04-05T05:04:58;6.47;;;4.37;;
14768;SDS011;7476;49.404;11.152;2023-04-05T05:07:25;6.03;;;4.37;;
14768;SDS011;7476;49.404;11.152;2023-04-05T05:09:53;6.63;;;4.07;;
14768;SDS011;7476;49.404;11.152;2023-04-05T05:12:19;7.10;;;4.30;;
14768;SDS011;7476;49.404;11.152;2023-04-05T05:14:46;7.10;;;4.17;;
14768;SDS011;7476;49.404;11.152;2023-04-05T05:17:13;9.97;;;4.93;;
14768;SDS011;7476;49.404;11.152;2023-04-05T05:19:40;5.23;;;4.60;;
14768;SDS011;7476;49.404;11.152;2023-04-05T05:22:06;6.63;;;4.63;;
14768;SDS011;7476;49.404;11.152;2023-04-05T05:24:33;4.97;;;4.07;;
14768;SDS011;7476;49.404;11.152;2023-04-05T05:27:02;5.80;;;4.30;;
14768;SDS011;7476;49.404;11.152;2023-04-05T05:29:29;5.27;;;4.30;;
14768;SDS011;7476;49.404;11.152;2023-04-05T05:31:56;5.60;;;3.97;;
14768;SDS011;7476;49.404;11.152;2023-04-05T05:34:23;5.20;;;3.90;;
14768;SDS011;7476;49.404;11.152;2023-04-05T05:36:50;4.60;;;4.07;;
14768;SDS011;7476;49.404;11.152;2023-04-05T05:39:17;5.23;;;3.70;;
14768;SDS011;7476;49.404;11.152;2023-04-05T05:41:44;5.33;;;4.03;;
14768;SDS011;7476;49.404;11.152;2023-04-05T05:44:12;7.50;;;4.27;;
14768;SDS011;7476;49.404;11.152;2023-04-05T05:46:39;4.80;;;3.97;;
14768;SDS011;7476;49.404;11.152;2023-04-05T05:49:06;7.67;;;4.03;;
14768;SDS011;7476;49.404;11.152;2023-04-05T05:51:32;6.03;;;4.40;;
14768;SDS011;7476;49.404;11.152;2023-04-05T05:53:59;6.53;;;4.50;;
14768;SDS011;7476;49.404;11.152;2023-04-05T05:56:26;5.33;;;3.97;;
14768;SDS011;7476;49.404;11.152;2023-04-05T05:58:53;5.80;;;4.13;;
14768;SDS011;7476;49.404;11.152;2023-04-05T06:01:21;6.30;;;4.43;;
14768;SDS011;7476;49.404;11.152;2023-04-05T06:03:52;5.80;;;4.23;;
14768;SDS011;7476;49.404;11.152;2023-04-05T06:06:18;6.40;;;3.97;;
14768;SDS011;7476;49.404;11.152;2023-04-05T06:08:46;5.87;;;3.93;;
14768;SDS011;7476;49.404;11.152;2023-04-05T06:11:16;6.83;;;4.33;;
14768;SDS011;7476;49.404;11.152;2023-04-05T06:13:44;6.57;;;4.07;;
14768;SDS011;7476;49.404;11.152;2023-04-05T06:16:10;5.67;;;3.97;;
14768;SDS011;7476;49.404;11.152;2023-04-05T06:18:38;6.73;;;4.37;;
14768;SDS011;7476;49.404;11.152;2023-04-05T06:21:06;6.80;;;4.13;;
14768;SDS011;7476;49.404;11.152;2023-04-05T06:23:33;7.73;;;4.40;;
14768;SDS011;7476;49.404;11.152;2023-04-05T06:25:59;5.87;;;4.53;;
14768;SDS011;7476;49.404;11.152;2023-04-05T06:28:26;14.23;;;5.23;;
14768;SDS011;7476;49.404;11.152;2023-04-05T06:30:54;6.30;;;4.67;;
14768;SDS011;7476;49.404;11.152;2023-04-05T06:33:23;7.37;;;4.40;;
14768;SDS011;7476;49.404;11.152;2023-04-05T06:35:51;6.93;;;4.40;;
14768;SDS011;7476;49.404;11.152;2023-04-05T06:38:18;6.47;;;4.57;;
14768;SDS011;7476;49.404;11.152;2023-04-05T06:40:45;7.83;;;4.60;;
14768;SDS011;7476;49.404;11.152;2023-04-05T06:43:11;6.40;;;4.60;;
14768;SDS011;7476;49.404;11.152;2023-04-05T06:45:38;5.10;;;4.50;;
14768;SDS011;7476;49.404;11.152;2023-04-05T06:48:05;7.27;;;4.60;;
14768;SDS011;7476;49.404;11.152;2023-04-05T06:50:32;4.83;;;4.07;;
14768;SDS011;7476;49.404;11.152;2023-04-05T06:53:01;8.27;;;4.30;;
14768;SDS011;7476;49.404;11.152;2023-04-05T06:55:27;7.73;;;4.47;;
14768;SDS011;7476;49.404;11.152;2023-04-05T06:57:55;4.53;;;3.77;;
14768;SDS011;7476;49.404;11.152;2023-04-05T07:00:21;5.83;;;3.70;;
14768;SDS011;7476;49.404;11.152;2023-04-05T07:02:48;5.50;;;3.77;;
14768;SDS011;7476;49.404;11.152;2023-04-05T07:05:15;6.63;;;3.57;;
14768;SDS011;7476;49.404;11.152;2023-04-05T07:07:42;5.27;;;3.60;;
14768;SDS011;7476;49.404;11.152;2023-04-05T07:10:11;6.57;;;3.70;;
14768;SDS011;7476;49.404;11.152;2023-04-05T07:12:37;4.53;;;3.50;;
14768;SDS011;7476;49.404;11.152;2023-04-05T07:15:05;6.93;;;3.57;;
14768;SDS011;7476;49.404;11.152;2023-04-05T07:17:32;6.57;;;3.87;;
14768;SDS011;7476;49.404;11.152;2023-04-05T07:19:59;7.43;;;4.30;;
14768;SDS011;7476;49.404;11.152;2023-04-05T07:22:25;4.87;;;3.67;;
14768;SDS011;7476;49.404;11.152;2023-04-05T07:24:52;4.93;;;3.53;;
14768;SDS011;7476;49.404;11.152;2023-04-05T07:27:20;6.17;;;3.70;;
14768;SDS011;7476;49.404;11.152;2023-04-05T07:29:47;8.17;;;3.63;;
14768;SDS011;7476;49.404;11.152;2023-04-05T07:32:14;5.77;;;3.57;;
14768;SDS011;7476;49.404;11.152;2023-04-05T07:34:40;4.67;;;3.73;;
14768;SDS011;7476;49.404;11.152;2023-04-05T07:37:07;5.87;;;3.47;;
14768;SDS011;7476;49.404;11.152;2023-04-05T07:39:34;6.23;;;3.80;;
14768;SDS011;7476;49.404;11.152;2023-04-05T07:42:00;6.70;;;3.70;;
14768;SDS011;7476;49.404;11.152;2023-04-05T07:44:28;6.43;;;3.63;;
14768;SDS011;7476;49.404;11.152;2023-04-05T07:46:55;4.93;;;3.50;;
14768;SDS011;7476;49.404;11.152;2023-04-05T07:49:25;5.40;;;3.23;;
14768;SDS011;7476;49.404;11.152;2023-04-05T07:51:55;4.87;;;3.20;;
14768;SDS011;7476;49.404;11.152;2023-04-05T07:54:22;4.33;;;3.23;;
14768;SDS011;7476;49.404;11.152;2023-04-05T07:56:49;4.10;;;3.17;;
14768;SDS011;7476;49.404;11.152;2023-04-05T07:59:16;4.17;;;2.80;;
14768;SDS011;7476;49.404;11.152;2023-04-05T08:01:45;3.80;;;2.87;;
14768;SDS011;7476;49.404;11.152;2023-04-05T08:04:11;3.73;;;2.90;;
14768;SDS011;7476;49.404;11.152;2023-04-05T08:06:38;3.23;;;2.53;;
14768;SDS011;7476;49.404;11.152;2023-04-05T08:09:04;3.80;;;2.83;;
14768;SDS011;7476;49.404;11.152;2023-04-05T08:11:33;4.47;;;2.50;;
14768;SDS011;7476;49.404;11.152;2023-04-05T08:13:59;4.13;;;2.90;;
14768;SDS011;7476;49.404;11.152;2023-04-05T08:16:26;2.73;;;2.43;;
14768;SDS011;7476;49.404;11.152;2023-04-05T08:18:54;5.60;;;2.97;;
14768;SDS011;7476;49.404;11.152;2023-04-05T08:21:21;3.30;;;2.60;;
14768;SDS011;7476;49.404;11.152;2023-04-05T08:23:48;3.63;;;2.73;;
14768;SDS011;7476;49.404;11.152;2023-04-05T08:26:15;3.73;;;2.73;;
14768;SDS011;7476;49.404;11.152;2023-04-05T08:28:42;3.60;;;2.70;;
14768;SDS011;7476;49.404;11.152;2023-04-05T08:31:08;2.93;;;2.60;;
14768;SDS011;7476;49.404;11.152;2023-04-05T08:33:36;2.77;;;2.50;;
14768;SDS011;7476;49.404;11.152;2023-04-05T08:36:05;3.43;;;2.57;;
14768;SDS011;7476;49.404;11.152;2023-04-05T08:38:32;4.67;;;2.77;;
14768;SDS011;7476;49.404;11.152;2023-04-05T08:41:05;4.33;;;2.80;;
14768;SDS011;7476;49.404;11.152;2023-04-05T08:43:37;4.17;;;2.73;;
14768;SDS011;7476;49.404;11.152;2023-04-05T08:46:10;3.17;;;2.60;;
14768;SDS011;7476;49.404;11.152;2023-04-05T08:48:39;6.63;;;3.37;;
14768;SDS011;7476;49.404;11.152;2023-04-05T08:51:08;4.80;;;2.90;;
14768;SDS011;7476;49.404;11.152;2023-04-05T08:53:35;3.57;;;2.43;;
14768;SDS011;7476;49.404;11.152;2023-04-05T08:56:02;4.07;;;3.07;;
14768;SDS011;7476;49.404;11.152;2023-04-05T08:58:30;4.80;;;3.17;;
14768;SDS011;7476;49.404;11.152;2023-04-05T09:01:00;3.63;;;3.07;;
14768;SDS011;7476;49.404;11.152;2023-04-05T09:03:30;4.40;;;3.47;;
14768;SDS011;7476;49.404;11.152;2023-04-05T09:06:01;3.37;;;2.77;;
14768;SDS011;7476;49.404;11.152;2023-04-05T09:08:33;4.07;;;2.70;;
14768;SDS011;7476;49.404;11.152;2023-04-05T09:11:00;4.33;;;3.00;;
14768;SDS011;7476;49.404;11.152;2023-04-05T09:13:27;3.53;;;2.87;;
14768;SDS011;7476;49.404;11.152;2023-04-05T09:15:53;3.83;;;3.00;;
14768;SDS011;7476;49.404;11.152;2023-04-05T09:18:21;4.03;;;3.00;;
14768;SDS011;7476;49.404;11.152;2023-04-05T09:20:48;4.07;;;3.17;;
14768;SDS011;7476;49.404;11.152;2023-04-05T09:23:15;4.37;;;2.87;;
14768;SDS011;7476;49.404;11.152;2023-04-05T09:25:43;3.13;;;2.83;;
14768;SDS011;7476;49.404;11.152;2023-04-05T09:28:11;3.93;;;2.70;;
14768;SDS011;7476;49.404;11.152;2023-04-05T09:30:38;3.40;;;3.10;;
14768;SDS011;7476;49.404;11.152;2023-04-05T09:33:12;4.40;;;3.30;;
14768;SDS011;7476;49.404;11.152;2023-04-05T09:35:43;3.80;;;2.73;;
14768;SDS011;7476;49.404;11.152;2023-04-05T09:38:10;4.33;;;2.80;;
14768;SDS011;7476;49.404;11.152;2023-04-05T09:40:40;6.70;;;3.20;;
14768;SDS011;7476;49.404;11.152;2023-04-05T09:43:10;4.37;;;3.37;;
14768;SDS011;7476;49.404;11.152;2023-04-05T09:45:37;4.17;;;3.10;;
14768;SDS011;7476;49.404;11.152;2023-04-05T09:48:05;3.83;;;3.00;;
14768;SDS011;7476;49.404;11.152;2023-04-05T09:50:32;3.80;;;2.80;;
14768;SDS011;7476;49.404;11.152;2023-04-05T09:53:06;3.77;;;2.90;;
14768;SDS011;7476;49.404;11.152;2023-04-05T09:55:34;3.10;;;2.80;;
14768;SDS011;7476;49.404;11.152;2023-04-05T09:58:02;3.67;;;3.37;;
14768;SDS011;7476;49.404;11.152;2023-04-05T10:00:29;3.90;;;2.73;;
14768;SDS011;7476;49.404;11.152;2023-04-05T10:02:56;4.63;;;3.47;;
14768;SDS011;7476;49.404;11.152;2023-04-05T10:05:23;3.97;;;3.10;;
14768;SDS011;7476;49.404;11.152;2023-04-05T10:07:52;5.43;;;3.23;;
14768;SDS011;7476;49.404;11.152;2023-04-05T10:10:20;4.83;;;3.10;;
14768;SDS011;7476;49.404;11.152;2023-04-05T10:12:48;4.40;;;3.00;;
14768;SDS011;7476;49.404;11.152;2023-04-05T10:15:16;3.90;;;2.90;;
14768;SDS011;7476;49.404;11.152;2023-04-05T10:17:45;3.97;;;3.00;;
14768;SDS011;7476;49.404;11.152;2023-04-05T10:20:16;4.60;;;3.20;;
14768;SDS011;7476;49.404;11.152;2023-04-05T10:22:48;4.63;;;2.90;;
14768;SDS011;7476;49.404;11.152;2023-04-05T10:25:23;5.03;;;2.90;;
14768;SDS011;7476;49.404;11.152;2023-04-05T10:27:53;3.13;;;2.83;;
14768;SDS011;7476;49.404;11.152;2023-04-05T10:30:28;4.33;;;3.07;;
14768;SDS011;7476;49.404;11.152;2023-04-05T10:33:02;4.37;;;3.27;;
14768;SDS011;7476;49.404;11.152;2023-04-05T10:35:38;5.43;;;3.30;;
14768;SDS011;7476;49.404;11.152;2023-04-05T10:38:16;6.43;;;3.07;;
14768;SDS011;7476;49.404;11.152;2023-04-05T10:40:48;3.90;;;3.00;;
14768;SDS011;7476;49.404;11.152;2023-04-05T10:43:18;3.93;;;2.70;;
14768;SDS011;7476;49.404;11.152;2023-04-05T10:45:48;5.20;;;3.27;;
14768;SDS011;7476;49.404;11.152;2023-04-05T10:48:20;5.07;;;2.90;;
14768;SDS011;7476;49.404;11.152;2023-04-05T10:50:53;3.83;;;3.43;;
14768;SDS011;7476;49.404;11.152;2023-04-05T10:53:23;4.90;;;3.50;;
14768;SDS011;7476;49.404;11.152;2023-04-05T10:55:51;5.77;;;3.37;;
14768;SDS011;7476;49.404;11.152;2023-04-05T10:58:18;4.23;;;3.30;;
14768;SDS011;7476;49.404;11.152;2023-04-05T11:00:45;4.27;;;3.07;;
14768;SDS011;7476;49.404;11.152;2023-04-05T11:06:19;3.37;;;3.07;;
14768;SDS011;7476;49.404;11.152;2023-04-05T11:08:48;3.07;;;2.73;;
14768;SDS011;7476;49.404;11.152;2023-04-05T11:11:17;4.63;;;3.00;;
14768;SDS011;7476;49.404;11.152;2023-04-05T11:13:47;3.87;;;2.90;;
14768;SDS011;7476;49.404;11.152;2023-04-05T11:16:16;4.90;;;3.03;;
14768;SDS011;7476;49.404;11.152;2023-04-05T11:18:43;4.63;;;3.20;;
14768;SDS011;7476;49.404;11.152;2023-04-05T11:21:11;3.97;;;2.83;;
14768;SDS011;7476;49.404;11.152;2023-04-05T11:23:59;4.70;;;3.20;;
14768;SDS011;7476;49.404;11.152;2023-04-05T11:26:30;5.40;;;3.30;;
14768;SDS011;7476;49.404;11.152;2023-04-05T11:28:57;3.67;;;2.90;;
14768;SDS011;7476;49.404;11.152;2023-04-05T11:31:25;3.80;;;2.87;;
14768;SDS011;7476;49.404;11.152;2023-04-05T11:33:53;3.70;;;3.17;;
14768;SDS011;7476;49.404;11.152;2023-04-05T11:36:35;5.27;;;2.67;;
14768;SDS011;7476;49.404;11.152;2023-04-05T11:39:21;5.90;;;3.13;;
14768;SDS011;7476;49.404;11.152;2023-04-05T11:41:52;5.17;;;3.07;;
14768;SDS011;7476;49.404;11.152;2023-04-05T11:44:20;3.07;;;2.77;;
14768;SDS011;7476;49.404;11.152;2023-04-05T11:46:49;3.30;;;3.00;;
14768;SDS011;7476;49.404;11.152;2023-04-05T11:49:16;4.30;;;3.00;;
14768;SDS011;7476;49.404;11.152;2023-04-05T11:51:44;4.20;;;3.00;;
14768;SDS011;7476;49.404;11.152;2023-04-05T11:54:13;4.00;;;3.20;;
14768;SDS011;7476;49.404;11.152;2023-04-05T11:56:39;4.17;;;3.03;;
14768;SDS011;7476;49.404;11.152;2023-04-05T11:59:12;4.50;;;2.90;;
14768;SDS011;7476;49.404;11.152;2023-04-05T12:01:42;4.90;;;3.07;;
14768;SDS011;7476;49.404;11.152;2023-04-05T12:04:12;3.00;;;2.70;;
14768;SDS011;7476;49.404;11.152;2023-04-05T12:06:39;5.03;;;2.80;;
14768;SDS011;7476;49.404;11.152;2023-04-05T12:09:06;3.37;;;2.90;;
14768;SDS011;7476;49.404;11.152;2023-04-05T12:11:32;3.37;;;2.80;;
14768;SDS011;7476;49.404;11.152;2023-04-05T12:13:59;3.43;;;3.07;;
14768;SDS011;7476;49.404;11.152;2023-04-05T12:16:28;3.57;;;2.97;;
14768;SDS011;7476;49.404;11.152;2023-04-05T12:18:55;3.33;;;3.03;;
14768;SDS011;7476;49.404;11.152;2023-04-05T12:21:24;3.90;;;3.20;;
14768;SDS011;7476;49.404;11.152;2023-04-05T12:23:51;5.80;;;3.10;;
14768;SDS011;7476;49.404;11.152;2023-04-05T12:26:18;4.07;;;3.10;;
14768;SDS011;7476;49.404;11.152;2023-04-05T12:28:49;5.13;;;3.33;;
14768;SDS011;7476;49.404;11.152;2023-04-05T12:31:17;4.80;;;3.17;;
14768;SDS011;7476;49.404;11.152;2023-04-05T12:34:00;4.13;;;2.90;;
14768;SDS011;7476;49.404;11.152;2023-04-05T12:36:28;3.50;;;3.20;;
14768;SDS011;7476;49.404;11.152;2023-04-05T12:38:56;5.77;;;2.80;;
14768;SDS011;7476;49.404;11.152;2023-04-05T12:41:25;5.50;;;3.10;;
14768;SDS011;7476;49.404;11.152;2023-04-05T12:43:52;3.10;;;2.80;;
14768;SDS011;7476;49.404;11.152;2023-04-05T12:46:36;3.77;;;3.00;;
14768;SDS011;7476;49.404;11.152;2023-04-05T12:49:04;4.80;;;2.80;;
14768;SDS011;7476;49.404;11.152;2023-04-05T12:51:32;3.50;;;3.17;;
14768;SDS011;7476;49.404;11.152;2023-04-05T12:54:00;4.47;;;3.03;;
14768;SDS011;7476;49.404;11.152;2023-04-05T12:56:27;3.40;;;3.10;;
14768;SDS011;7476;49.404;11.152;2023-04-05T12:58:54;3.83;;;3.33;;
14768;SDS011;7476;49.404;11.152;2023-04-05T13:01:21;4.00;;;3.07;;
14768;SDS011;7476;49.404;11.152;2023-04-05T13:03:47;5.97;;;3.27;;
14768;SDS011;7476;49.404;11.152;2023-04-05T13:06:15;3.43;;;2.80;;
14768;SDS011;7476;49.404;11.152;2023-04-05T13:08:43;3.97;;;2.90;;
14768;SDS011;7476;49.404;11.152;2023-04-05T13:11:10;4.47;;;3.70;;
14768;SDS011;7476;49.404;11.152;2023-04-05T13:13:36;4.33;;;3.03;;
14768;SDS011;7476;49.404;11.152;2023-04-05T13:16:03;5.07;;;3.40;;
14768;SDS011;7476;49.404;11.152;2023-04-05T13:18:30;3.57;;;2.77;;
14768;SDS011;7476;49.404;11.152;2023-04-05T13:20:57;4.30;;;3.17;;
14768;SDS011;7476;49.404;11.152;2023-04-05T13:23:24;5.17;;;3.10;;
14768;SDS011;7476;49.404;11.152;2023-04-05T13:25:52;4.27;;;2.70;;
14768;SDS011;7476;49.404;11.152;2023-04-05T13:28:19;3.27;;;2.73;;
14768;SDS011;7476;49.404;11.152;2023-04-05T13:30:45;5.47;;;3.37;;
14768;SDS011;7476;49.404;11.152;2023-04-05T13:33:12;3.50;;;2.93;;
14768;SDS011;7476;49.404;11.152;2023-04-05T13:35:39;3.00;;;2.70;;
14768;SDS011;7476;49.404;11.152;2023-04-05T13:38:05;5.47;;;3.13;;
14768;SDS011;7476;49.404;11.152;2023-04-05T13:40:32;3.13;;;2.83;;
14768;SDS011;7476;49.404;11.152;2023-04-05T13:43:00;3.53;;;2.87;;
14768;SDS011;7476;49.404;11.152;2023-04-05T13:45:27;4.63;;;2.97;;
14768;SDS011;7476;49.404;11.152;2023-04-05T13:47:53;5.13;;;3.07;;
14768;SDS011;7476;49.404;11.152;2023-04-05T13:50:20;3.70;;;3.00;;
14768;SDS011;7476;49.404;11.152;2023-04-05T13:52:47;4.20;;;2.97;;
14768;SDS011;7476;49.404;11.152;2023-04-05T13:55:13;3.43;;;3.13;;
14768;SDS011;7476;49.404;11.152;2023-04-05T13:57:40;3.97;;;2.93;;
14768;SDS011;7476;49.404;11.152;2023-04-05T14:00:09;3.80;;;2.80;;
14768;SDS011;7476;49.404;11.152;2023-04-05T14:02:36;3.57;;;3.27;;
14768;SDS011;7476;49.404;11.152;2023-04-05T14:05:03;4.47;;;3.27;;
14768;SDS011;7476;49.404;11.152;2023-04-05T14:07:30;4.00;;;2.93;;
14768;SDS011;7476;49.404;11.152;2023-04-05T14:09:57;4.33;;;3.20;;
14768;SDS011;7476;49.404;11.152;2023-04-05T14:12:24;3.73;;;3.00;;
14768;SDS011;7476;49.404;11.152;2023-04-05T14:14:50;3.13;;;2.73;;
14768;SDS011;7476;49.404;11.152;2023-04-05T14:17:18;4.13;;;3.13;;
14768;SDS011;7476;49.404;11.152;2023-04-05T14:19:45;4.07;;;3.47;;
14768;SDS011;7476;49.404;11.152;2023-04-05T14:22:12;4.33;;;2.93;;
14768;SDS011;7476;49.404;11.152;2023-04-05T14:24:39;3.93;;;2.90;;
14768;SDS011;7476;49.404;11.152;2023-04-05T14:27:06;4.27;;;2.87;;
14768;SDS011;7476;49.404;11.152;2023-04-05T14:29:32;3.57;;;3.20;;
14768;SDS011;7476;49.404;11.152;2023-04-05T14:31:59;4.17;;;3.27;;
14768;SDS011;7476;49.404;11.152;2023-04-05T14:34:27;3.70;;;2.80;;
14768;SDS011;7476;49.404;11.152;2023-04-05T14:36:53;3.60;;;2.90;;
14768;SDS011;7476;49.404;11.152;2023-04-05T14:39:22;5.23;;;3.07;;
14768;SDS011;7476;49.404;11.152;2023-04-05T14:41:48;4.10;;;3.20;;
14768;SDS011;7476;49.404;11.152;2023-04-05T14:44:16;4.27;;;3.00;;
14768;SDS011;7476;49.404;11.152;2023-04-05T14:46:43;4.73;;;3.13;;
14768;SDS011;7476;49.404;11.152;2023-04-05T14:49:10;4.10;;;3.10;;
14768;SDS011;7476;49.404;11.152;2023-04-05T14:51:38;3.07;;;2.73;;
14768;SDS011;7476;49.404;11.152;2023-04-05T14:54:05;6.57;;;3.30;;
14768;SDS011;7476;49.404;11.152;2023-04-05T14:56:31;4.50;;;2.90;;
14768;SDS011;7476;49.404;11.152;2023-04-05T14:58:58;4.83;;;3.10;;
14768;SDS011;7476;49.404;11.152;2023-04-05T15:01:26;3.53;;;2.90;;
14768;SDS011;7476;49.404;11.152;2023-04-05T15:03:53;3.87;;;3.30;;